Time;durP1;ratioP1;P1;durP2;ratioP2;P2;SDS_P1;SDS_P2;PMS_P1;PMS_P2;Temp;Humidity;BMP_temperature;BMP_pressure;BME280_temperature;BME280_humidity;BME280_pressure;Samples;Min_cycle;Max_cycle;Signal;HPM_P1;HPM_P2
2023/05/17 00:00:29;;;;;;;3.83;2.87;;;11.40;96.30;;;;;;10469890;28;20556;-85
2023/05/17 00:05:31;;;;;;;5.27;3.33;;;11.30;97.30;;;;;;10465227;28;20246;-84
2023/05/17 00:10:33;;;;;;;2.93;2.63;;;11.20;97.00;;;;;;10449398;28;20281;-85
2023/05/17 00:15:36;;;;;;;2.90;2.30;;;11.20;97.70;;;;;;10489374;28;20205;-85
2023/05/17 00:20:38;;;;;;;3.17;2.50;;;11.10;97.40;;;;;;10472785;28;20286;-85
2023/05/17 00:25:41;;;;;;;3.10;2.57;;;11.10;97.80;;;;;;10479778;28;20202;-85
2023/05/17 00:30:44;;;;;;;7.73;2.87;;;11.00;97.50;;;;;;10455555;28;20735;-85
2023/05/17 00:35:46;;;;;;;2.27;2.10;;;11.00;98.30;;;;;;10445549;28;20198;-85
2023/05/17 00:40:49;;;;;;;2.43;2.23;;;10.90;98.30;;;;;;10485197;28;20217;-85
2023/05/17 00:45:53;;;;;;;3.10;2.80;;;10.90;97.10;;;;;;10430435;28;20293;-85
2023/05/17 00:50:56;;;;;;;4.10;2.80;;;10.80;98.00;;;;;;10487829;28;20218;-85
2023/05/17 00:55:58;;;;;;;2.93;2.73;;;10.80;97.80;;;;;;10488217;28;20232;-85
2023/05/17 01:01:02;;;;;;;4.73;2.50;;;10.70;98.40;;;;;;10508847;28;20221;-84
2023/05/17 01:06:05;;;;;;;2.80;2.60;;;10.70;98.50;;;;;;10448784;28;20634;-84
2023/05/17 01:11:18;;;;;;;2.30;2.20;;;10.70;98.40;;;;;;10488013;28;20669;-84
2023/05/17 01:16:29;;;;;;;3.10;2.90;;;10.70;97.90;;;;;;10448459;28;20224;-84
2023/05/17 01:21:44;;;;;;;3.40;3.10;;;10.70;98.10;;;;;;10462065;28;20287;-84
2023/05/17 01:26:50;;;;;;;2.70;2.50;;;10.70;97.80;;;;;;10379804;28;20206;-84
2023/05/17 01:31:54;;;;;;;3.50;3.10;;;10.70;97.90;;;;;;10431647;28;20222;-84
2023/05/17 01:36:57;;;;;;;2.83;2.57;;;10.70;97.90;;;;;;10473478;28;20208;-85
2023/05/17 01:42:07;;;;;;;2.63;2.50;;;10.70;98.00;;;;;;10421830;28;20275;-84
2023/05/17 01:47:14;;;;;;;4.40;2.90;;;10.60;98.10;;;;;;10443676;28;20616;-84
2023/05/17 01:52:24;;;;;;;2.90;2.60;;;10.60;98.40;;;;;;10422768;28;20228;-84
2023/05/17 01:57:29;;;;;;;3.93;3.13;;;10.50;98.80;;;;;;10463304;28;20224;-84
2023/05/17 02:02:32;;;;;;;2.90;2.70;;;10.50;99.80;;;;;;10469655;28;20222;-84
2023/05/17 02:07:34;;;;;;;6.00;3.10;;;10.50;99.50;;;;;;10483604;28;20264;-84
2023/05/17 02:12:37;;;;;;;5.23;2.70;;;10.50;98.40;;;;;;10458791;28;20213;-84
2023/05/17 02:17:40;;;;;;;3.53;3.17;;;10.50;98.90;;;;;;10433871;28;20220;-84
2023/05/17 02:22:42;;;;;;;3.10;2.80;;;10.50;98.50;;;;;;10381838;28;20332;-84
2023/05/17 02:27:45;;;;;;;4.67;3.00;;;10.50;98.90;;;;;;10494088;28;20193;-84
2023/05/17 02:32:48;;;;;;;3.43;3.03;;;10.40;99.10;;;;;;10481907;28;20202;-84
2023/05/17 02:37:50;;;;;;;3.83;2.80;;;10.40;98.90;;;;;;10480468;28;20209;-84
2023/05/17 02:42:54;;;;;;;3.30;3.10;;;10.30;98.90;;;;;;10464839;28;20771;-84
2023/05/17 02:47:56;;;;;;;3.20;3.00;;;10.30;98.80;;;;;;10508781;28;20216;-84
2023/05/17 02:52:58;;;;;;;3.37;3.07;;;10.30;99.20;;;;;;10478518;28;20206;-84
2023/05/17 02:58:03;;;;;;;3.93;2.87;;;10.20;99.20;;;;;;10483897;28;20198;-84
2023/05/17 03:03:05;;;;;;;3.67;2.83;;;10.20;99.10;;;;;;10512610;28;20648;-84
2023/05/17 03:08:08;;;;;;;2.77;2.57;;;10.10;99.90;;;;;;10468793;28;20193;-85
2023/05/17 03:13:12;;;;;;;3.40;3.10;;;10.00;99.10;;;;;;10450496;28;20213;-84
2023/05/17 03:18:15;;;;;;;3.67;3.37;;;10.00;99.90;;;;;;10462293;28;20201;-85
2023/05/17 03:23:18;;;;;;;3.67;3.30;;;9.90;99.90;;;;;;10495408;28;20234;-83
2023/05/17 03:28:32;;;;;;;3.13;2.80;;;10.00;99.30;;;;;;10482835;28;20235;-85
2023/05/17 03:33:35;;;;;;;3.07;2.87;;;9.90;99.90;;;;;;10490282;28;20293;-84
2023/05/17 03:38:37;;;;;;;3.50;2.97;;;9.90;99.60;;;;;;10472169;28;20270;-86
2023/05/17 03:43:41;;;;;;;4.67;3.17;;;9.80;99.40;;;;;;10533690;22;20733;-83
2023/05/17 03:48:46;;;;;;;3.50;3.20;;;9.70;99.60;;;;;;10539143;28;20723;-83
2023/05/17 03:53:51;;;;;;;5.10;3.07;;;9.70;99.60;;;;;;10568188;28;20218;-83
2023/05/17 03:58:54;;;;;;;5.20;2.80;;;9.60;99.90;;;;;;10534104;28;20291;-83
2023/05/17 04:03:56;;;;;;;4.53;2.80;;;9.60;99.90;;;;;;10542074;28;20641;-83
2023/05/17 04:08:59;;;;;;;2.90;2.70;;;9.60;99.90;;;;;;10523307;28;20200;-83
2023/05/17 04:14:03;;;;;;;2.97;2.77;;;9.50;99.90;;;;;;10526276;28;20267;-83
2023/05/17 04:19:05;;;;;;;3.90;2.90;;;9.60;99.90;;;;;;10514000;28;20207;-82
2023/05/17 04:24:08;;;;;;;3.63;2.10;;;9.60;99.90;;;;;;10559721;28;20644;-83
2023/05/17 04:29:12;;;;;;;3.27;3.07;;;9.70;99.90;;;;;;10556138;28;20188;-83
2023/05/17 04:34:14;;;;;;;3.50;3.20;;;9.80;99.90;;;;;;10567434;28;20572;-83
2023/05/17 04:39:17;;;;;;;3.97;3.10;;;9.80;99.90;;;;;;10486105;28;20198;-83
2023/05/17 04:44:21;;;;;;;39.47;21.40;;;9.80;99.90;;;;;;10550143;28;20231;-83
2023/05/17 04:49:23;;;;;;;77.23;37.30;;;9.80;99.90;;;;;;10558124;28;20192;-83
2023/05/17 04:54:26;;;;;;;56.67;31.20;;;9.90;99.90;;;;;;10539914;28;20215;-83
2023/05/17 04:59:30;;;;;;;10.27;6.50;;;10.00;99.80;;;;;;10533197;28;20199;-86
2023/05/17 05:04:32;;;;;;;4.57;4.27;;;10.00;99.90;;;;;;10538039;28;20216;-83
2023/05/17 05:09:34;;;;;;;6.17;3.83;;;10.10;99.90;;;;;;10543164;28;20256;-83
2023/05/17 05:14:39;;;;;;;3.63;3.33;;;10.20;99.90;;;;;;10527102;28;20216;-83
2023/05/17 05:19:42;;;;;;;3.40;2.67;;;10.30;99.90;;;;;;10511460;28;20188;-83
2023/05/17 05:24:44;;;;;;;5.77;3.13;;;10.40;99.80;;;;;;10544551;28;20277;-83
2023/05/17 05:29:48;;;;;;;4.07;2.80;;;10.60;99.80;;;;;;10568182;28;20196;-83
2023/05/17 05:34:50;;;;;;;3.20;2.67;;;10.70;99.90;;;;;;10537983;28;20272;-85
2023/05/17 05:39:52;;;;;;;6.10;3.00;;;10.90;99.90;;;;;;10562281;28;20795;-85
2023/05/17 05:44:56;;;;;;;5.27;3.10;;;11.10;99.90;;;;;;10533068;28;20729;-85
2023/05/17 05:50:00;;;;;;;5.73;3.33;;;11.20;99.20;;;;;;10496146;28;20207;-83
2023/05/17 05:55:06;;;;;;;4.20;2.90;;;11.40;97.50;;;;;;10526105;28;20251;-83
2023/05/17 06:00:11;;;;;;;4.27;2.93;;;11.50;98.20;;;;;;10534500;28;20255;-83
2023/05/17 06:05:16;;;;;;;7.70;3.40;;;11.60;98.30;;;;;;10584090;28;20207;-83
2023/05/17 06:10:19;;;;;;;3.60;3.10;;;11.70;98.60;;;;;;10569002;28;20188;-83
2023/05/17 06:15:22;;;;;;;5.27;3.43;;;11.70;98.60;;;;;;10544632;28;20220;-83
2023/05/17 06:20:24;;;;;;;5.37;2.93;;;11.80;96.70;;;;;;10557828;28;20249;-85
2023/05/17 06:25:26;;;;;;;5.50;3.20;;;11.80;97.70;;;;;;10549532;28;20239;-84
2023/05/17 06:30:30;;;;;;;6.47;3.40;;;11.90;97.90;;;;;;10544539;28;20248;-83
2023/05/17 06:35:32;;;;;;;9.37;3.33;;;11.90;97.90;;;;;;10549199;28;20216;-82
2023/05/17 06:40:34;;;;;;;4.07;3.67;;;12.00;98.00;;;;;;10547095;28;20239;-83
2023/05/17 06:45:37;;;;;;;4.83;3.20;;;12.10;98.60;;;;;;10553751;28;20528;-83
2023/05/17 06:50:39;;;;;;;4.77;3.17;;;12.20;98.70;;;;;;10553939;28;20192;-83
2023/05/17 06:55:42;;;;;;;4.87;3.43;;;12.40;97.30;;;;;;10574851;28;20212;-83
2023/05/17 07:00:45;;;;;;;4.13;3.73;;;12.60;98.20;;;;;;10569344;28;20210;-83
2023/05/17 07:05:47;;;;;;;3.43;3.13;;;12.70;97.30;;;;;;10553827;28;20280;-83
2023/05/17 07:10:51;;;;;;;4.27;3.40;;;12.90;98.40;;;;;;10542310;28;20221;-84
2023/05/17 07:15:55;;;;;;;4.27;3.67;;;13.10;96.20;;;;;;10553690;28;20222;-83
2023/05/17 07:20:57;;;;;;;4.63;3.80;;;13.30;97.90;;;;;;10572904;28;20384;-83
2023/05/17 07:25:59;;;;;;;3.77;3.40;;;13.60;97.10;;;;;;10586479;28;20199;-83
2023/05/17 07:31:02;;;;;;;5.70;3.70;;;13.90;97.80;;;;;;10573255;28;20423;-83
2023/05/17 07:36:05;;;;;;;6.27;3.23;;;14.30;96.70;;;;;;10564247;28;20199;-83
2023/05/17 07:41:08;;;;;;;4.53;3.87;;;14.60;96.00;;;;;;10558376;28;20279;-83
2023/05/17 07:46:11;;;;;;;7.27;4.17;;;14.90;95.10;;;;;;10548978;28;20694;-83
2023/05/17 07:51:13;;;;;;;5.10;3.30;;;15.20;95.50;;;;;;10581928;28;20208;-83
2023/05/17 07:56:15;;;;;;;4.30;3.83;;;15.30;95.10;;;;;;10551198;28;20229;-83
2023/05/17 08:01:19;;;;;;;4.50;4.10;;;15.50;95.10;;;;;;10538575;28;20225;-83
2023/05/17 08:06:21;;;;;;;6.20;3.80;;;15.60;93.50;;;;;;10555516;28;20219;-83
2023/05/17 08:11:24;;;;;;;3.67;3.40;;;15.90;94.70;;;;;;10539448;28;20579;-83
2023/05/17 08:16:27;;;;;;;6.90;3.80;;;16.20;93.50;;;;;;10568809;28;20200;-83
2023/05/17 08:21:30;;;;;;;5.00;4.00;;;16.60;93.30;;;;;;10508795;28;20328;-83
2023/05/17 08:26:32;;;;;;;5.80;3.83;;;16.80;92.10;;;;;;10510451;28;20645;-83
2023/05/17 08:31:36;;;;;;;5.37;3.80;;;17.30;91.60;;;;;;10562112;28;20261;-84
2023/05/17 08:36:38;;;;;;;3.87;3.50;;;17.80;91.10;;;;;;10543445;28;20188;-84
2023/05/17 08:41:40;;;;;;;9.23;3.93;;;18.10;91.90;;;;;;10538502;28;20220;-83
2023/05/17 08:46:44;;;;;;;4.70;3.80;;;18.40;91.00;;;;;;10529275;28;20237;-84
2023/05/17 08:51:49;;;;;;;5.07;3.70;;;18.20;91.30;;;;;;10523324;28;20232;-84
2023/05/17 08:56:54;;;;;;;4.70;4.03;;;18.20;90.30;;;;;;10522467;28;20625;-84
2023/05/17 09:01:57;;;;;;;5.23;3.60;;;18.60;87.40;;;;;;10526204;28;20227;-84
2023/05/17 09:07:00;;;;;;;4.37;3.97;;;19.00;90.20;;;;;;10530080;28;20763;-84
2023/05/17 09:12:03;;;;;;;5.50;4.07;;;19.60;86.90;;;;;;10543043;28;20243;-84
2023/05/17 09:17:06;;;;;;;5.63;4.20;;;19.30;87.00;;;;;;10541952;28;20219;-84
2023/05/17 09:22:08;;;;;;;8.33;4.30;;;18.80;87.00;;;;;;10525003;28;20644;-84
2023/05/17 09:27:15;;;;;;;7.70;3.93;;;18.30;85.00;;;;;;10536275;28;20551;-84
2023/05/17 09:32:20;;;;;;;5.10;3.90;;;18.00;90.00;;;;;;10565693;28;20233;-84
2023/05/17 09:37:24;;;;;;;5.57;3.50;;;18.10;90.20;;;;;;10553690;28;20667;-83
2023/05/17 09:42:27;;;;;;;4.50;3.50;;;18.30;88.40;;;;;;10543193;28;20254;-83
2023/05/17 09:47:32;;;;;;;4.33;4.00;;;18.50;85.70;;;;;;10554914;28;20196;-83
2023/05/17 09:52:36;;;;;;;5.80;4.10;;;18.70;82.80;;;;;;10543625;28;20220;-83
2023/05/17 09:57:40;;;;;;;4.80;3.73;;;18.60;83.20;;;;;;10514498;28;20193;-83
2023/05/17 10:02:47;;;;;;;3.90;3.10;;;18.40;80.30;;;;;;10541871;28;20306;-83
2023/05/17 10:07:50;;;;;;;4.73;3.27;;;18.60;84.00;;;;;;10537610;28;20198;-84
2023/05/17 10:12:53;;;;;;;3.80;3.40;;;18.80;84.50;;;;;;10538505;28;20300;-84
2023/05/17 10:17:57;;;;;;;4.50;4.10;;;19.30;78.80;;;;;;10523627;28;20577;-84
2023/05/17 10:23:04;;;;;;;4.20;3.77;;;19.40;74.70;;;;;;10519603;28;20699;-84
2023/05/17 10:28:07;;;;;;;4.30;3.20;;;19.10;77.80;;;;;;10506161;28;20724;-83
2023/05/17 10:33:13;;;;;;;4.20;3.57;;;18.80;81.50;;;;;;10515281;28;20311;-83
2023/05/17 10:38:16;;;;;;;4.80;4.20;;;18.50;83.30;;;;;;10503997;28;20254;-84
2023/05/17 10:43:19;;;;;;;4.50;3.37;;;18.50;82.20;;;;;;10500495;28;20235;-84
2023/05/17 10:48:27;;;;;;;4.10;3.47;;;18.60;80.30;;;;;;10522668;28;20640;-83
2023/05/17 10:53:29;;;;;;;4.73;3.70;;;18.60;79.90;;;;;;10528062;28;20229;-83
2023/05/17 10:58:32;;;;;;;4.30;3.90;;;18.70;81.50;;;;;;10564384;28;20226;-83
2023/05/17 11:03:37;;;;;;;5.67;3.97;;;18.80;76.90;;;;;;10548250;28;20221;-84
2023/05/17 11:08:46;;;;;;;6.10;4.20;;;18.80;81.10;;;;;;10515141;28;20614;-84
2023/05/17 11:13:52;;;;;;;4.30;3.30;;;18.60;78.80;;;;;;10535635;28;20223;-83
2023/05/17 11:19:06;;;;;;;4.40;3.80;;;18.20;82.30;;;;;;10570710;28;20199;-83
2023/05/17 11:24:09;;;;;;;5.23;3.80;;;18.10;80.90;;;;;;10555030;28;20290;-83
2023/05/17 11:29:11;;;;;;;6.30;4.20;;;17.90;78.60;;;;;;10578821;28;20198;-83
2023/05/17 11:34:17;;;;;;;4.83;3.60;;;17.50;81.40;;;;;;10550835;28;20458;-83
2023/05/17 11:39:21;;;;;;;5.60;4.63;;;17.20;82.80;;;;;;10555520;28;20223;-83
2023/05/17 11:44:28;;;;;;;5.93;4.70;;;17.10;84.00;;;;;;10540419;28;20283;-84
2023/05/17 11:49:32;;;;;;;5.00;3.80;;;16.80;83.10;;;;;;10536824;28;20258;-83
2023/05/17 11:54:35;;;;;;;4.57;3.63;;;16.70;88.00;;;;;;10535217;28;20371;-83
2023/05/17 11:59:38;;;;;;;4.83;3.20;;;16.60;85.40;;;;;;10569152;28;20192;-83
2023/05/17 12:04:42;;;;;;;7.50;4.20;;;16.60;86.50;;;;;;10537029;28;20216;-83
2023/05/17 12:09:44;;;;;;;4.37;3.97;;;16.60;85.80;;;;;;10534643;28;20200;-83
2023/05/17 12:14:47;;;;;;;4.00;3.70;;;16.70;85.80;;;;;;10550442;28;20669;-83
2023/05/17 12:19:53;;;;;;;4.10;3.27;;;16.80;83.70;;;;;;10585631;28;20537;-83
2023/05/17 12:24:55;;;;;;;4.07;3.77;;;16.90;84.70;;;;;;10553379;28;20313;-83
2023/05/17 12:29:57;;;;;;;4.50;3.50;;;17.10;80.90;;;;;;10541483;28;20286;-83
2023/05/17 12:35:01;;;;;;;5.30;3.50;;;17.20;84.40;;;;;;10524590;28;20221;-83
2023/05/17 12:40:04;;;;;;;3.90;3.50;;;17.40;83.20;;;;;;10531945;28;20572;-84
2023/05/17 12:45:07;;;;;;;8.73;4.70;;;17.50;79.10;;;;;;10522236;28;20220;-84
2023/05/17 12:50:11;;;;;;;5.17;4.30;;;17.50;84.60;;;;;;10531895;28;20223;-84
2023/05/17 12:55:13;;;;;;;6.80;4.10;;;17.60;84.50;;;;;;10520303;28;20222;-84
2023/05/17 13:00:17;;;;;;;8.50;4.57;;;17.60;82.10;;;;;;10547905;28;20211;-84
2023/05/17 13:05:21;;;;;;;7.17;4.97;;;17.40;79.80;;;;;;10528344;28;20226;-83
2023/05/17 13:10:25;;;;;;;4.30;3.90;;;17.20;83.60;;;;;;10533835;28;20553;-83
2023/05/17 13:15:31;;;;;;;5.73;4.10;;;17.10;85.20;;;;;;10533599;28;20200;-83
2023/05/17 13:20:35;;;;;;;4.20;3.80;;;17.20;83.10;;;;;;10519548;28;20204;-83
2023/05/17 13:25:37;;;;;;;3.80;3.30;;;17.30;85.90;;;;;;10502029;28;20238;-83
2023/05/17 13:30:39;;;;;;;4.53;3.50;;;17.40;86.50;;;;;;10519110;28;20544;-84
2023/05/17 13:35:42;;;;;;;3.77;3.37;;;17.50;85.10;;;;;;10528826;28;20645;-83
2023/05/17 13:40:45;;;;;;;4.57;4.03;;;17.50;83.40;;;;;;10538445;28;20483;-83
2023/05/17 13:45:53;;;;;;;4.37;3.70;;;17.60;86.50;;;;;;10516470;28;20264;-84
2023/05/17 13:50:57;;;;;;;5.20;3.67;;;17.60;80.30;;;;;;10524175;28;20200;-84
2023/05/17 13:55:59;;;;;;;5.27;4.20;;;17.50;85.50;;;;;;10562825;28;20188;-83
2023/05/17 14:01:02;;;;;;;4.33;3.10;;;17.50;85.70;;;;;;10522051;28;20216;-83
2023/05/17 14:06:06;;;;;;;4.27;3.97;;;17.50;86.10;;;;;;10485503;28;20220;-84
2023/05/17 14:11:08;;;;;;;4.37;3.80;;;17.50;85.00;;;;;;10540448;28;20714;-84
2023/05/17 14:16:10;;;;;;;4.23;3.80;;;17.50;81.70;;;;;;10519117;28;20207;-84
2023/05/17 14:21:14;;;;;;;4.30;3.90;;;17.50;81.30;;;;;;10522165;28;20195;-83
2023/05/17 14:26:16;;;;;;;6.77;4.17;;;17.50;82.90;;;;;;10513038;28;20205;-82
2023/05/17 14:31:18;;;;;;;5.43;4.27;;;17.50;80.80;;;;;;10534498;28;20212;-82
2023/05/17 14:36:22;;;;;;;4.27;3.97;;;17.50;82.90;;;;;;10517721;28;20183;-82
2023/05/17 14:41:24;;;;;;;4.70;4.20;;;17.50;77.60;;;;;;10552868;28;20222;-82
2023/05/17 14:46:26;;;;;;;4.23;3.43;;;17.30;82.60;;;;;;10555356;28;20215;-82
2023/05/17 14:51:30;;;;;;;6.83;4.00;;;17.20;81.60;;;;;;10535556;28;20835;-82
2023/05/17 14:56:32;;;;;;;5.13;3.90;;;17.10;81.90;;;;;;10562024;28;20184;-82
2023/05/17 15:01:34;;;;;;;7.23;4.50;;;17.10;82.60;;;;;;10558110;28;20213;-82
2023/05/17 15:06:37;;;;;;;4.43;4.03;;;17.00;84.20;;;;;;10554719;28;20196;-82
2023/05/17 15:11:40;;;;;;;5.93;4.50;;;16.90;78.50;;;;;;10558012;28;20216;-81
2023/05/17 15:16:42;;;;;;;4.70;3.60;;;16.70;78.60;;;;;;10538626;28;20195;-82
2023/05/17 15:21:46;;;;;;;6.77;4.30;;;16.40;83.50;;;;;;10578264;28;20208;-82
2023/05/17 15:26:48;;;;;;;6.00;3.93;;;16.30;84.10;;;;;;10579675;28;20212;-82
2023/05/17 15:31:50;;;;;;;6.07;4.00;;;16.20;84.70;;;;;;10548733;28;20223;-81
2023/05/17 15:36:55;;;;;;;4.47;4.07;;;16.10;88.10;;;;;;10579030;28;20188;-81
2023/05/17 15:41:57;;;;;;;4.80;3.60;;;16.10;81.50;;;;;;10584561;22;20240;-80
2023/05/17 15:46:59;;;;;;;4.83;4.43;;;16.00;82.40;;;;;;10493809;28;20669;-80
2023/05/17 15:52:03;;;;;;;4.43;4.00;;;16.00;79.90;;;;;;10448392;28;20225;-79
2023/05/17 15:57:06;;;;;;;5.53;3.60;;;16.00;83.20;;;;;;10432146;28;20205;-78
2023/05/17 16:02:08;;;;;;;7.60;4.03;;;15.80;85.40;;;;;;10493989;28;20214;-77
2023/05/17 16:07:11;;;;;;;6.10;4.13;;;15.80;86.70;;;;;;10467930;28;20201;-79
2023/05/17 16:12:13;;;;;;;4.10;3.70;;;15.90;82.80;;;;;;10460531;28;20205;-79
2023/05/17 16:17:15;;;;;;;5.10;4.60;;;15.80;85.00;;;;;;10443510;28;20240;-79
2023/05/17 16:22:19;;;;;;;4.70;4.30;;;15.60;83.30;;;;;;10404438;28;20210;-78
2023/05/17 16:27:21;;;;;;;4.30;3.83;;;15.60;81.30;;;;;;10423882;28;20226;-79
2023/05/17 16:32:23;;;;;;;4.60;4.10;;;15.50;77.50;;;;;;10427052;28;20213;-79
2023/05/17 16:37:27;;;;;;;5.60;4.13;;;15.50;82.10;;;;;;10443414;28;20194;-79
2023/05/17 16:42:29;;;;;;;4.20;3.80;;;15.50;84.10;;;;;;10442773;28;20225;-79
2023/05/17 16:47:31;;;;;;;5.00;4.50;;;15.40;82.30;;;;;;10428266;28;20375;-78
2023/05/17 16:52:35;;;;;;;5.03;4.50;;;15.30;82.80;;;;;;10425075;28;20206;-78
2023/05/17 16:57:37;;;;;;;4.77;4.00;;;15.20;84.60;;;;;;10442158;28;20205;-78
2023/05/17 17:02:39;;;;;;;4.57;4.27;;;15.10;87.20;;;;;;10431034;28;20296;-79
2023/05/17 17:07:44;;;;;;;5.00;4.50;;;15.00;84.90;;;;;;10443079;28;20201;-78
2023/05/17 17:12:46;;;;;;;4.50;4.07;;;15.00;84.20;;;;;;10478072;28;20270;-78
2023/05/17 17:17:49;;;;;;;9.37;7.23;;;14.90;84.10;;;;;;10477169;28;20204;-78
2023/05/17 17:22:52;;;;;;;5.90;5.00;;;14.90;82.10;;;;;;10462261;28;20217;-78
2023/05/17 17:27:54;;;;;;;4.83;4.13;;;14.90;90.00;;;;;;10439913;28;20198;-78
2023/05/17 17:32:56;;;;;;;6.13;4.20;;;14.80;88.10;;;;;;10488570;28;20557;-79
2023/05/17 17:38:01;;;;;;;5.13;4.63;;;14.90;88.20;;;;;;10497521;28;20280;-79
2023/05/17 17:43:04;;;;;;;6.13;5.63;;;14.90;84.00;;;;;;10443712;28;20235;-78
2023/05/17 17:48:06;;;;;;;5.43;4.87;;;14.90;89.90;;;;;;10457139;28;20201;-76
2023/05/17 17:53:09;;;;;;;5.00;4.03;;;15.00;88.10;;;;;;10487972;28;20249;-78
2023/05/17 17:58:11;;;;;;;5.27;4.80;;;15.00;85.40;;;;;;10478035;28;20197;-78
2023/05/17 18:03:13;;;;;;;4.90;4.50;;;15.10;83.70;;;;;;10447562;28;20271;-79
2023/05/17 18:08:17;;;;;;;5.43;4.70;;;15.00;84.20;;;;;;10457778;28;20225;-80
2023/05/17 18:13:19;;;;;;;4.30;3.93;;;15.00;85.90;;;;;;10491541;28;20240;-79
2023/05/17 18:18:21;;;;;;;4.03;3.63;;;14.90;82.50;;;;;;10490018;28;20201;-79
2023/05/17 18:23:24;;;;;;;5.67;4.20;;;14.80;81.60;;;;;;10479573;28;20228;-79
2023/05/17 18:28:27;;;;;;;4.97;4.47;;;14.80;86.40;;;;;;10472732;28;20198;-78
2023/05/17 18:33:29;;;;;;;6.90;4.80;;;14.70;85.90;;;;;;10496844;28;20251;-79
2023/05/17 18:38:34;;;;;;;5.07;4.57;;;14.70;88.20;;;;;;10505324;28;20656;-79
2023/05/17 18:43:36;;;;;;;5.60;5.20;;;14.60;89.30;;;;;;10475238;28;20290;-78
2023/05/17 18:48:39;;;;;;;6.50;5.90;;;14.60;88.90;;;;;;10465842;28;20280;-78
2023/05/17 18:53:43;;;;;;;6.10;5.20;;;14.60;89.80;;;;;;10488475;28;20221;-78
2023/05/17 18:58:45;;;;;;;5.10;4.60;;;14.50;90.30;;;;;;10498982;28;20703;-78
2023/05/17 19:03:50;;;;;;;5.43;4.80;;;14.40;91.00;;;;;;10501454;28;20292;-78
2023/05/17 19:08:54;;;;;;;5.47;4.60;;;14.30;90.80;;;;;;10462938;28;20190;-78
2023/05/17 19:13:56;;;;;;;6.63;4.67;;;14.20;90.90;;;;;;10462812;28;20576;-78
2023/05/17 19:19:00;;;;;;;6.37;5.17;;;14.10;88.10;;;;;;10500595;28;20254;-79
2023/05/17 19:24:04;;;;;;;5.13;4.60;;;13.90;87.80;;;;;;10456046;28;20268;-78
2023/05/17 19:29:06;;;;;;;5.60;5.10;;;13.70;87.40;;;;;;10441470;28;20634;-79
2023/05/17 19:34:08;;;;;;;6.17;5.10;;;13.40;87.80;;;;;;10456188;28;20214;-79
2023/05/17 19:39:12;;;;;;;6.10;5.10;;;13.20;90.10;;;;;;10449383;28;20670;-79
2023/05/17 19:44:14;;;;;;;6.60;4.97;;;13.10;90.10;;;;;;10447188;28;20230;-81
2023/05/17 19:49:16;;;;;;;6.90;5.10;;;12.90;90.30;;;;;;10438561;28;20225;-81
2023/05/17 19:54:20;;;;;;;6.00;5.23;;;12.80;90.60;;;;;;10491341;28;20206;-81
2023/05/17 19:59:25;;;;;;;7.47;6.03;;;12.80;90.60;;;;;;10503547;28;20201;-79
2023/05/17 20:04:30;;;;;;;5.90;4.90;;;12.70;91.90;;;;;;10484896;28;20220;-79
2023/05/17 20:09:35;;;;;;;6.97;5.30;;;12.60;92.80;;;;;;10450639;28;20722;-79
2023/05/17 20:14:37;;;;;;;8.40;5.87;;;12.60;93.10;;;;;;10481915;28;20225;-79
2023/05/17 20:19:39;;;;;;;5.73;5.10;;;12.50;93.30;;;;;;10481251;28;20285;-80
2023/05/17 20:24:44;;;;;;;7.13;5.77;;;12.60;93.20;;;;;;10465060;28;20270;-79
2023/05/17 20:29:49;;;;;;;7.63;5.80;;;12.60;93.40;;;;;;10465658;28;20251;-79
2023/05/17 20:34:51;;;;;;;6.27;5.67;;;12.50;93.30;;;;;;10462386;28;20754;-79
2023/05/17 20:40:06;;;;;;;9.93;8.40;;;12.50;92.80;;;;;;10465999;28;20671;-78
2023/05/17 20:45:09;;;;;;;11.83;7.73;;;12.50;92.10;;;;;;10462469;28;20220;-80
2023/05/17 20:50:15;;;;;;;7.47;6.70;;;12.50;93.00;;;;;;10470048;28;20193;-77
2023/05/17 20:55:19;;;;;;;9.43;7.40;;;12.40;93.00;;;;;;10467929;28;20751;-79
2023/05/17 21:00:26;;;;;;;35.13;23.40;;;12.40;92.60;;;;;;10474503;28;20227;-80
2023/05/17 21:05:34;;;;;;;20.57;16.20;;;12.30;92.80;;;;;;10470232;28;20328;-79
2023/05/17 21:10:39;;;;;;;8.80;7.17;;;12.20;92.80;;;;;;10487645;28;20198;-81
2023/05/17 21:15:41;;;;;;;7.63;6.67;;;12.10;93.90;;;;;;10439066;28;20214;-80
2023/05/17 21:20:50;;;;;;;6.03;5.53;;;12.00;93.60;;;;;;10499098;28;20247;-79
2023/05/17 21:25:54;;;;;;;6.50;5.80;;;11.90;93.90;;;;;;10469967;28;20693;-79
2023/05/17 21:30:56;;;;;;;7.43;6.17;;;11.90;93.20;;;;;;10459883;28;20720;-79
2023/05/17 21:35:59;;;;;;;7.27;6.47;;;11.90;92.80;;;;;;10472568;28;20225;-81
2023/05/17 21:41:03;;;;;;;6.73;6.13;;;11.80;93.90;;;;;;10446057;28;20197;-80
2023/05/17 21:46:07;;;;;;;6.30;5.70;;;11.80;94.50;;;;;;10448889;28;20276;-80
2023/05/17 21:51:10;;;;;;;5.83;5.30;;;11.70;94.80;;;;;;10473376;28;20197;-80
2023/05/17 21:56:13;;;;;;;6.37;5.70;;;11.60;95.00;;;;;;10475247;28;20692;-79
2023/05/17 22:01:22;;;;;;;8.03;6.30;;;11.60;94.10;;;;;;10462659;28;20225;-79
2023/05/17 22:06:26;;;;;;;8.53;7.73;;;11.50;93.80;;;;;;10470171;28;20245;-76
2023/05/17 22:11:31;;;;;;;7.93;7.33;;;11.50;94.50;;;;;;10442213;28;20202;-77
2023/05/17 22:16:33;;;;;;;6.63;6.00;;;11.50;94.00;;;;;;10459836;28;20190;-78
2023/05/17 22:21:35;;;;;;;7.20;6.10;;;11.40;93.30;;;;;;10457355;28;20189;-78
2023/05/17 22:26:39;;;;;;;10.20;5.57;;;11.30;93.80;;;;;;10477756;28;20217;-78
2023/05/17 22:31:41;;;;;;;6.47;5.27;;;11.20;94.60;;;;;;10440948;28;20218;-78
2023/05/17 22:36:43;;;;;;;5.80;4.77;;;11.20;93.50;;;;;;10450454;28;20541;-78
2023/05/17 22:41:46;;;;;;;7.90;5.60;;;11.10;93.80;;;;;;10455144;28;20221;-77
2023/05/17 22:46:51;;;;;;;6.23;5.30;;;11.10;95.00;;;;;;10481451;28;20249;-78
2023/05/17 22:52:04;;;;;;;6.40;5.73;;;11.00;95.30;;;;;;10455513;28;20248;-80
2023/05/17 22:57:08;;;;;;;6.40;5.27;;;11.00;94.40;;;;;;10435773;28;20190;-80
2023/05/17 23:02:11;;;;;;;5.97;5.10;;;11.00;94.00;;;;;;10413339;28;20242;-79
2023/05/17 23:07:13;;;;;;;7.17;5.37;;;11.00;94.70;;;;;;10450203;28;20289;-78
2023/05/17 23:12:17;;;;;;;5.70;5.20;;;10.90;94.70;;;;;;10475401;28;20287;-82
2023/05/17 23:17:19;;;;;;;5.80;4.93;;;10.90;94.60;;;;;;10486197;28;20702;-77
2023/05/17 23:22:21;;;;;;;5.97;5.37;;;10.80;94.50;;;;;;10473283;28;20221;-77
2023/05/17 23:27:24;;;;;;;5.57;5.17;;;10.80;94.30;;;;;;10480651;28;20256;-78
2023/05/17 23:32:27;;;;;;;6.67;5.80;;;10.70;95.00;;;;;;10486236;28;20225;-78
2023/05/17 23:37:30;;;;;;;6.43;5.83;;;10.60;95.10;;;;;;10495179;28;20216;-78
2023/05/17 23:42:33;;;;;;;7.00;6.40;;;10.60;94.80;;;;;;10450962;28;20230;-76
2023/05/17 23:47:39;;;;;;;6.10;5.50;;;10.60;95.40;;;;;;10490758;28;20216;-78
2023/05/17 23:52:42;;;;;;;8.10;6.27;;;10.60;95.50;;;;;;10473268;28;20210;-78
2023/05/17 23:57:45;;;;;;;7.20;6.57;;;10.60;95.20;;;;;;10472828;28;20672;-79
